CFG18B LKPR-EDDF
Flight info
| Callsign | CFG18B |
|---|---|
| Flight time | 0h 49m |
| Altitude | 30000 |
| Route | BALT4B BALTU DONAD RAPET T170 GAPLA T178 KERAX KERA5A |
| Aircraft | A320/M-SDE3FGHIRWY/LB1 |
Departure
| Time | 2026-05-06 18:39 |
|---|---|
| Airport | Václav Havel Airport Prague (LKPR) |
Arrival
| Time | 2026-05-06 19:28 |
|---|---|
| Airport | Frankfurt Main Airport (EDDF) |
| Time | Latitude | Longitude | Altitude | Speed | Heading |
|---|---|---|---|---|---|
| 2026-05-06 17:57 | 50.10821 | 14.26523 | 1173 ft | 0 kts | 34° |
| 2026-05-06 18:16 | 50.10820 | 14.26523 | 1177 ft | 1 kts | 34° |
| 2026-05-06 18:16 | 50.10809 | 14.26511 | 1172 ft | 2 kts | 35° |
| 2026-05-06 18:16 | 50.10798 | 14.26499 | 1174 ft | 2 kts | 34° |
| 2026-05-06 18:17 | 50.10790 | 14.26490 | 1172 ft | 2 kts | 32° |
| 2026-05-06 18:17 | 50.10780 | 14.26481 | 1172 ft | 2 kts | 22° |
| 2026-05-06 18:17 | 50.10773 | 14.26476 | 1173 ft | 1 kts | 347° |
| 2026-05-06 18:17 | 50.10767 | 14.26477 | 1173 ft | 1 kts | 312° |
| 2026-05-06 18:18 | 50.10763 | 14.26484 | 1174 ft | 1 kts | 306° |
| 2026-05-06 18:18 | 50.10759 | 14.26491 | 1174 ft | 0 kts | 303° |
| 2026-05-06 18:21 | 50.10762 | 14.26486 | 1173 ft | 1 kts | 303° |
| 2026-05-06 18:21 | 50.10768 | 14.26472 | 1173 ft | 1 kts | 303° |
| 2026-05-06 18:21 | 50.10773 | 14.26452 | 1174 ft | 5 kts | 287° |
| 2026-05-06 18:21 | 50.10781 | 14.26403 | 1175 ft | 4 kts | 290° |
| 2026-05-06 18:22 | 50.10795 | 14.26365 | 1174 ft | 4 kts | 303° |
| 2026-05-06 18:22 | 50.10808 | 14.26335 | 1176 ft | 3 kts | 303° |
| 2026-05-06 18:22 | 50.10824 | 14.26283 | 1174 ft | 10 kts | 292° |
| 2026-05-06 18:22 | 50.10855 | 14.26199 | 1177 ft | 9 kts | 304° |
| 2026-05-06 18:23 | 50.10891 | 14.26118 | 1173 ft | 10 kts | 304° |
| 2026-05-06 18:23 | 50.10925 | 14.26042 | 1172 ft | 8 kts | 305° |
| 2026-05-06 18:23 | 50.10959 | 14.25964 | 1168 ft | 9 kts | 298° |
| 2026-05-06 18:23 | 50.10938 | 14.25883 | 1170 ft | 8 kts | 217° |
| 2026-05-06 18:24 | 50.10900 | 14.25843 | 1168 ft | 5 kts | 213° |
| 2026-05-06 18:24 | 50.10871 | 14.25812 | 1172 ft | 4 kts | 214° |
| 2026-05-06 18:24 | 50.10829 | 14.25768 | 1170 ft | 12 kts | 214° |
| 2026-05-06 18:24 | 50.10771 | 14.25707 | 1172 ft | 9 kts | 214° |
| 2026-05-06 18:25 | 50.10729 | 14.25662 | 1175 ft | 6 kts | 214° |
| 2026-05-06 18:25 | 50.10701 | 14.25631 | 1174 ft | 4 kts | 216° |
| 2026-05-06 18:25 | 50.10676 | 14.25600 | 1175 ft | 6 kts | 228° |
| 2026-05-06 18:25 | 50.10671 | 14.25562 | 1177 ft | 2 kts | 272° |
| 2026-05-06 18:26 | 50.10688 | 14.25499 | 1176 ft | 6 kts | 298° |
| 2026-05-06 18:26 | 50.10705 | 14.25450 | 1173 ft | 3 kts | 299° |
| 2026-05-06 18:26 | 50.10719 | 14.25410 | 1170 ft | 5 kts | 299° |
| 2026-05-06 18:26 | 50.10738 | 14.25358 | 1171 ft | 6 kts | 299° |
| 2026-05-06 18:27 | 50.10740 | 14.25352 | 1171 ft | 0 kts | 299° |
| 2026-05-06 18:29 | 50.10747 | 14.25332 | 1172 ft | 2 kts | 299° |
| 2026-05-06 18:30 | 50.10756 | 14.25308 | 1171 ft | 3 kts | 298° |
| 2026-05-06 18:30 | 50.10769 | 14.25269 | 1171 ft | 5 kts | 299° |
| 2026-05-06 18:30 | 50.10778 | 14.25246 | 1168 ft | 1 kts | 300° |
| 2026-05-06 18:30 | 50.10780 | 14.25241 | 1168 ft | 0 kts | 300° |
| 2026-05-06 18:31 | 50.10780 | 14.25240 | 1168 ft | 0 kts | 300° |
| 2026-05-06 18:31 | 50.10782 | 14.25235 | 1169 ft | 0 kts | 300° |
| 2026-05-06 18:31 | 50.10783 | 14.25233 | 1169 ft | 0 kts | 300° |
| 2026-05-06 18:31 | 50.10787 | 14.25221 | 1170 ft | 1 kts | 299° |
| 2026-05-06 18:32 | 50.10791 | 14.25209 | 1169 ft | 1 kts | 299° |
| 2026-05-06 18:32 | 50.10801 | 14.25177 | 1171 ft | 5 kts | 292° |
| 2026-05-06 18:32 | 50.10808 | 14.25141 | 1169 ft | 1 kts | 285° |
| 2026-05-06 18:32 | 50.10810 | 14.25129 | 1171 ft | 4 kts | 283° |
| 2026-05-06 18:33 | 50.10813 | 14.25100 | 1173 ft | 2 kts | 275° |
| 2026-05-06 18:33 | 50.10813 | 14.25089 | 1173 ft | 0 kts | 275° |
| 2026-05-06 18:36 | 50.10817 | 14.25026 | 1171 ft | 10 kts | 275° |
| 2026-05-06 18:37 | 50.10820 | 14.24958 | 1169 ft | 11 kts | 271° |
| 2026-05-06 18:37 | 50.10822 | 14.24879 | 1170 ft | 11 kts | 266° |
| 2026-05-06 18:37 | 50.10810 | 14.24758 | 1168 ft | 11 kts | 258° |
| 2026-05-06 18:37 | 50.10781 | 14.24642 | 1167 ft | 18 kts | 227° |
| 2026-05-06 18:38 | 50.10711 | 14.24719 | 1167 ft | 15 kts | 128° |
| 2026-05-06 18:38 | 50.10554 | 14.25044 | 1172 ft | 72 kts | 127° |
| 2026-05-06 18:38 | 50.10119 | 14.25948 | 1192 ft | 134 kts | 127° |
| 2026-05-06 18:38 | 50.09480 | 14.27286 | 1444 ft | 162 kts | 125° |
| 2026-05-06 18:39 | 50.08806 | 14.28739 | 2146 ft | 169 kts | 126° |
| 2026-05-06 18:39 | 50.08099 | 14.30225 | 2881 ft | 172 kts | 124° |
| 2026-05-06 18:39 | 50.07345 | 14.31796 | 3360 ft | 193 kts | 127° |
| 2026-05-06 18:40 | 50.05520 | 14.35512 | 4227 ft | 240 kts | 128° |
| 2026-05-06 18:40 | 50.04454 | 14.37677 | 4783 ft | 261 kts | 129° |
| 2026-05-06 18:40 | 50.03330 | 14.39970 | 5657 ft | 269 kts | 129° |
| 2026-05-06 18:40 | 50.02523 | 14.41621 | 6344 ft | 272 kts | 130° |
| 2026-05-06 18:41 | 50.01532 | 14.43656 | 7115 ft | 276 kts | 130° |
| 2026-05-06 18:41 | 50.00561 | 14.46275 | 7995 ft | 287 kts | 110° |
| 2026-05-06 18:41 | 50.00396 | 14.49417 | 8837 ft | 301 kts | 82° |
| 2026-05-06 18:41 | 50.01140 | 14.52458 | 9673 ft | 310 kts | 58° |
| 2026-05-06 18:42 | 50.02596 | 14.55000 | 10227 ft | 326 kts | 35° |
| 2026-05-06 18:42 | 50.04721 | 14.56460 | 10539 ft | 345 kts | 7° |
| 2026-05-06 18:42 | 50.07115 | 14.56277 | 11127 ft | 348 kts | 340° |
| 2026-05-06 18:42 | 50.09228 | 14.54544 | 11869 ft | 344 kts | 315° |
| 2026-05-06 18:43 | 50.10665 | 14.51633 | 12661 ft | 338 kts | 290° |
| 2026-05-06 18:43 | 50.11207 | 14.48107 | 13462 ft | 336 kts | 272° |
| 2026-05-06 18:43 | 50.11390 | 14.44464 | 14206 ft | 339 kts | 271° |
| 2026-05-06 18:43 | 50.11552 | 14.40785 | 14937 ft | 342 kts | 270° |
| 2026-05-06 18:44 | 50.11706 | 14.37066 | 15550 ft | 346 kts | 270° |
| 2026-05-06 18:44 | 50.11860 | 14.33318 | 15898 ft | 349 kts | 270° |
| 2026-05-06 18:44 | 50.12021 | 14.29536 | 16641 ft | 351 kts | 270° |
| 2026-05-06 18:44 | 50.12185 | 14.25728 | 17341 ft | 354 kts | 270° |
| 2026-05-06 18:45 | 50.12353 | 14.21881 | 18031 ft | 358 kts | 270° |
| 2026-05-06 18:45 | 50.12522 | 14.17993 | 18624 ft | 361 kts | 270° |
| 2026-05-06 18:45 | 50.12692 | 14.14068 | 19228 ft | 365 kts | 270° |
| 2026-05-06 18:45 | 50.12862 | 14.10153 | 19822 ft | 368 kts | 270° |
| 2026-05-06 18:46 | 50.13034 | 14.06161 | 20428 ft | 371 kts | 270° |
| 2026-05-06 18:46 | 50.13203 | 14.02124 | 21032 ft | 374 kts | 269° |
| 2026-05-06 18:46 | 50.13370 | 13.98053 | 21629 ft | 377 kts | 269° |
| 2026-05-06 18:46 | 50.13536 | 13.93954 | 22221 ft | 380 kts | 269° |
| 2026-05-06 18:47 | 50.13706 | 13.89812 | 22801 ft | 384 kts | 269° |
| 2026-05-06 18:47 | 50.13880 | 13.85642 | 23370 ft | 387 kts | 269° |
| 2026-05-06 18:47 | 50.13983 | 13.83135 | 23655 ft | 389 kts | 269° |
| 2026-05-06 18:47 | 50.14155 | 13.78918 | 24132 ft | 391 kts | 269° |
| 2026-05-06 18:48 | 50.14325 | 13.74679 | 24610 ft | 393 kts | 269° |
| 2026-05-06 18:48 | 50.14493 | 13.70419 | 25078 ft | 395 kts | 269° |
| 2026-05-06 18:48 | 50.14661 | 13.66140 | 25535 ft | 396 kts | 269° |
| 2026-05-06 18:48 | 50.14826 | 13.61892 | 25987 ft | 398 kts | 269° |
| 2026-05-06 18:49 | 50.14989 | 13.57576 | 26436 ft | 400 kts | 269° |
| 2026-05-06 18:49 | 50.15151 | 13.53241 | 26880 ft | 401 kts | 269° |
| 2026-05-06 18:49 | 50.15314 | 13.48887 | 27310 ft | 403 kts | 269° |
| 2026-05-06 18:49 | 50.15486 | 13.44504 | 27725 ft | 406 kts | 271° |
| 2026-05-06 18:50 | 50.16028 | 13.40144 | 28137 ft | 413 kts | 279° |
| 2026-05-06 18:50 | 50.16731 | 13.35791 | 28549 ft | 415 kts | 279° |
| 2026-05-06 18:50 | 50.17446 | 13.31421 | 28951 ft | 417 kts | 279° |
| 2026-05-06 18:50 | 50.18171 | 13.27029 | 29333 ft | 419 kts | 279° |
| 2026-05-06 18:51 | 50.18901 | 13.22607 | 29697 ft | 421 kts | 279° |
| 2026-05-06 18:51 | 50.20322 | 13.13989 | 29779 ft | 401 kts | 279° |
| 2026-05-06 18:52 | 50.21675 | 13.05624 | 29787 ft | 396 kts | 278° |
| 2026-05-06 18:52 | 50.23001 | 12.97280 | 29783 ft | 395 kts | 278° |
| 2026-05-06 18:53 | 50.24327 | 12.88943 | 29784 ft | 396 kts | 278° |
| 2026-05-06 18:53 | 50.25652 | 12.80631 | 29786 ft | 396 kts | 278° |
| 2026-05-06 18:54 | 50.26974 | 12.72299 | 29781 ft | 395 kts | 278° |
| 2026-05-06 18:54 | 50.28292 | 12.63961 | 29779 ft | 395 kts | 278° |
| 2026-05-06 18:55 | 50.29596 | 12.55611 | 29776 ft | 395 kts | 278° |
| 2026-05-06 18:55 | 50.30896 | 12.47269 | 29777 ft | 395 kts | 278° |
| 2026-05-06 18:56 | 50.32194 | 12.38901 | 29776 ft | 395 kts | 278° |
| 2026-05-06 18:56 | 50.33476 | 12.30607 | 29775 ft | 395 kts | 278° |
| 2026-05-06 18:57 | 50.34763 | 12.22237 | 29772 ft | 395 kts | 278° |
| 2026-05-06 18:57 | 50.35786 | 12.15576 | 29772 ft | 395 kts | 278° |
| 2026-05-06 18:58 | 50.37052 | 12.07200 | 29770 ft | 395 kts | 278° |
| 2026-05-06 18:58 | 50.38311 | 11.98807 | 29791 ft | 396 kts | 278° |
| 2026-05-06 18:59 | 50.39574 | 11.90403 | 29793 ft | 396 kts | 278° |
| 2026-05-06 18:59 | 50.40831 | 11.81985 | 29793 ft | 397 kts | 278° |
| 2026-05-06 18:59 | 50.41459 | 11.77772 | 29690 ft | 396 kts | 278° |
| 2026-05-06 19:00 | 50.42086 | 11.73569 | 28902 ft | 397 kts | 278° |
| 2026-05-06 19:00 | 50.42711 | 11.69363 | 28256 ft | 395 kts | 278° |
| 2026-05-06 19:00 | 50.43331 | 11.65175 | 27647 ft | 392 kts | 279° |
| 2026-05-06 19:00 | 50.43945 | 11.61025 | 27061 ft | 389 kts | 279° |
| 2026-05-06 19:01 | 50.44553 | 11.56899 | 26493 ft | 387 kts | 279° |
| 2026-05-06 19:01 | 50.45156 | 11.52800 | 25943 ft | 384 kts | 279° |
| 2026-05-06 19:01 | 50.45745 | 11.48775 | 25409 ft | 382 kts | 279° |
| 2026-05-06 19:01 | 50.46337 | 11.44718 | 24886 ft | 379 kts | 279° |
| 2026-05-06 19:02 | 50.46921 | 11.40692 | 24391 ft | 377 kts | 280° |
| 2026-05-06 19:02 | 50.47499 | 11.36687 | 23936 ft | 375 kts | 280° |
| 2026-05-06 19:02 | 50.48075 | 11.32696 | 23780 ft | 375 kts | 280° |
| 2026-05-06 19:02 | 50.48652 | 11.28694 | 23799 ft | 377 kts | 280° |
| 2026-05-06 19:03 | 50.49231 | 11.24679 | 23798 ft | 377 kts | 280° |
| 2026-05-06 19:03 | 50.49808 | 11.20660 | 23801 ft | 377 kts | 280° |
| 2026-05-06 19:03 | 50.50386 | 11.16628 | 23807 ft | 378 kts | 280° |
| 2026-05-06 19:03 | 50.50961 | 11.12601 | 23806 ft | 378 kts | 280° |
| 2026-05-06 19:04 | 50.51530 | 11.08616 | 23799 ft | 378 kts | 280° |
| 2026-05-06 19:04 | 50.52105 | 11.04576 | 23797 ft | 378 kts | 280° |
| 2026-05-06 19:04 | 50.52677 | 11.00543 | 23797 ft | 378 kts | 280° |
| 2026-05-06 19:04 | 50.53244 | 10.96506 | 23795 ft | 378 kts | 279° |
| 2026-05-06 19:05 | 50.53811 | 10.92466 | 23800 ft | 378 kts | 279° |
| 2026-05-06 19:05 | 50.54378 | 10.88417 | 23795 ft | 379 kts | 280° |
| 2026-05-06 19:05 | 50.54944 | 10.84384 | 23796 ft | 379 kts | 280° |
| 2026-05-06 19:05 | 50.55513 | 10.80331 | 23806 ft | 379 kts | 280° |
| 2026-05-06 19:06 | 50.56080 | 10.76284 | 23801 ft | 379 kts | 279° |
| 2026-05-06 19:06 | 50.56643 | 10.72230 | 23798 ft | 379 kts | 279° |
| 2026-05-06 19:06 | 50.57200 | 10.68177 | 23803 ft | 379 kts | 279° |
| 2026-05-06 19:06 | 50.57757 | 10.64109 | 23790 ft | 379 kts | 279° |
| 2026-05-06 19:07 | 50.58319 | 10.60041 | 23806 ft | 380 kts | 280° |
| 2026-05-06 19:07 | 50.58789 | 10.57380 | 23794 ft | 382 kts | 286° |
| 2026-05-06 19:07 | 50.59613 | 10.53752 | 23784 ft | 382 kts | 287° |
| 2026-05-06 19:07 | 50.60511 | 10.49815 | 23766 ft | 381 kts | 287° |
| 2026-05-06 19:08 | 50.61405 | 10.45863 | 23315 ft | 382 kts | 287° |
| 2026-05-06 19:08 | 50.62289 | 10.41936 | 22734 ft | 378 kts | 287° |
| 2026-05-06 19:08 | 50.63160 | 10.38042 | 22166 ft | 374 kts | 286° |
| 2026-05-06 19:08 | 50.63783 | 10.34090 | 21606 ft | 369 kts | 276° |
| 2026-05-06 19:09 | 50.63978 | 10.30098 | 21055 ft | 363 kts | 268° |
| 2026-05-06 19:09 | 50.63765 | 10.26163 | 20519 ft | 359 kts | 258° |
| 2026-05-06 19:09 | 50.63164 | 10.22380 | 19991 ft | 354 kts | 250° |
| 2026-05-06 19:09 | 50.62200 | 10.18828 | 19475 ft | 351 kts | 241° |
| 2026-05-06 19:10 | 50.61047 | 10.15510 | 18963 ft | 348 kts | 240° |
| 2026-05-06 19:10 | 50.59890 | 10.12189 | 18465 ft | 346 kts | 240° |
| 2026-05-06 19:10 | 50.58737 | 10.08873 | 17950 ft | 343 kts | 241° |
| 2026-05-06 19:10 | 50.57594 | 10.05585 | 17387 ft | 342 kts | 241° |
| 2026-05-06 19:11 | 50.56456 | 10.02315 | 16828 ft | 340 kts | 241° |
| 2026-05-06 19:11 | 50.55321 | 9.99057 | 16276 ft | 337 kts | 241° |
| 2026-05-06 19:11 | 50.54285 | 9.95769 | 15741 ft | 334 kts | 247° |
| 2026-05-06 19:11 | 50.53523 | 9.92323 | 15218 ft | 331 kts | 253° |
| 2026-05-06 19:12 | 50.52915 | 9.88893 | 14697 ft | 328 kts | 253° |
| 2026-05-06 19:12 | 50.52302 | 9.85461 | 14188 ft | 325 kts | 253° |
| 2026-05-06 19:12 | 50.51688 | 9.82061 | 13689 ft | 322 kts | 253° |
| 2026-05-06 19:12 | 50.51079 | 9.78693 | 13145 ft | 319 kts | 253° |
| 2026-05-06 19:13 | 50.50473 | 9.75352 | 12567 ft | 316 kts | 253° |
| 2026-05-06 19:13 | 50.49877 | 9.72050 | 12031 ft | 313 kts | 253° |
| 2026-05-06 19:13 | 50.49304 | 9.68767 | 11494 ft | 308 kts | 254° |
| 2026-05-06 19:13 | 50.48752 | 9.65549 | 10988 ft | 305 kts | 254° |
| 2026-05-06 19:14 | 50.48209 | 9.62361 | 10789 ft | 295 kts | 254° |
| 2026-05-06 19:14 | 50.47696 | 9.59343 | 10804 ft | 286 kts | 254° |
| 2026-05-06 19:14 | 50.47175 | 9.56339 | 10814 ft | 284 kts | 253° |
| 2026-05-06 19:14 | 50.46628 | 9.53366 | 10806 ft | 283 kts | 252° |
| 2026-05-06 19:15 | 50.46071 | 9.50430 | 10499 ft | 280 kts | 252° |
| 2026-05-06 19:15 | 50.45507 | 9.47503 | 10129 ft | 279 kts | 252° |
| 2026-05-06 19:15 | 50.44946 | 9.44599 | 9772 ft | 277 kts | 252° |
| 2026-05-06 19:15 | 50.44390 | 9.41713 | 9389 ft | 275 kts | 252° |
| 2026-05-06 19:16 | 50.43843 | 9.38842 | 9005 ft | 274 kts | 252° |
| 2026-05-06 19:16 | 50.43301 | 9.35993 | 8802 ft | 272 kts | 252° |
| 2026-05-06 19:16 | 50.42757 | 9.33143 | 8811 ft | 273 kts | 252° |
| 2026-05-06 19:16 | 50.42268 | 9.30568 | 8812 ft | 273 kts | 252° |
| 2026-05-06 19:17 | 50.41882 | 9.28570 | 8815 ft | 273 kts | 251° |
| 2026-05-06 19:17 | 50.40988 | 9.25984 | 8682 ft | 270 kts | 228° |
| 2026-05-06 19:17 | 50.39495 | 9.24294 | 8270 ft | 269 kts | 207° |
| 2026-05-06 19:17 | 50.37780 | 9.23094 | 7829 ft | 270 kts | 204° |
| 2026-05-06 19:18 | 50.36055 | 9.21966 | 7422 ft | 268 kts | 204° |
| 2026-05-06 19:18 | 50.34328 | 9.20853 | 7012 ft | 267 kts | 204° |
| 2026-05-06 19:18 | 50.32619 | 9.19745 | 6812 ft | 265 kts | 207° |
| 2026-05-06 19:18 | 50.31124 | 9.18091 | 6821 ft | 264 kts | 222° |
| 2026-05-06 19:19 | 50.29755 | 9.16159 | 6819 ft | 265 kts | 224° |
| 2026-05-06 19:19 | 50.28402 | 9.14207 | 6821 ft | 264 kts | 224° |
| 2026-05-06 19:19 | 50.27049 | 9.12247 | 6822 ft | 265 kts | 224° |
| 2026-05-06 19:19 | 50.25705 | 9.10301 | 6639 ft | 261 kts | 224° |
| 2026-05-06 19:20 | 50.24373 | 9.08373 | 6211 ft | 261 kts | 224° |
| 2026-05-06 19:20 | 50.23063 | 9.06482 | 5780 ft | 259 kts | 224° |
| 2026-05-06 19:20 | 50.21740 | 9.04576 | 5347 ft | 258 kts | 224° |
| 2026-05-06 19:20 | 50.20429 | 9.02688 | 5025 ft | 255 kts | 224° |
| 2026-05-06 19:21 | 50.19115 | 9.00806 | 4992 ft | 257 kts | 224° |
| 2026-05-06 19:21 | 50.17796 | 8.98908 | 4993 ft | 258 kts | 224° |
| 2026-05-06 19:21 | 50.16473 | 8.97009 | 5000 ft | 258 kts | 224° |
| 2026-05-06 19:21 | 50.15148 | 8.95107 | 5001 ft | 258 kts | 224° |
| 2026-05-06 19:22 | 50.13993 | 8.92992 | 4998 ft | 257 kts | 243° |
| 2026-05-06 19:22 | 50.13331 | 8.90415 | 5004 ft | 256 kts | 250° |
| 2026-05-06 19:22 | 50.12735 | 8.87812 | 5002 ft | 249 kts | 250° |
| 2026-05-06 19:22 | 50.12347 | 8.86143 | 4976 ft | 237 kts | 250° |
| 2026-05-06 19:23 | 50.11797 | 8.83800 | 4738 ft | 230 kts | 250° |
| 2026-05-06 19:23 | 50.11249 | 8.81476 | 4433 ft | 227 kts | 250° |
| 2026-05-06 19:23 | 50.10708 | 8.79184 | 4117 ft | 224 kts | 250° |
| 2026-05-06 19:23 | 50.10171 | 8.76909 | 3802 ft | 222 kts | 251° |
| 2026-05-06 19:24 | 50.09638 | 8.74653 | 3471 ft | 221 kts | 250° |
| 2026-05-06 19:24 | 50.09107 | 8.72409 | 3164 ft | 220 kts | 251° |
| 2026-05-06 19:24 | 50.08580 | 8.70187 | 2835 ft | 215 kts | 251° |
| 2026-05-06 19:24 | 50.08078 | 8.68072 | 2539 ft | 206 kts | 252° |
| 2026-05-06 19:25 | 50.07587 | 8.66001 | 2252 ft | 196 kts | 252° |
| 2026-05-06 19:25 | 50.07135 | 8.64099 | 1983 ft | 184 kts | 252° |
| 2026-05-06 19:25 | 50.06711 | 8.62317 | 1723 ft | 166 kts | 252° |
| 2026-05-06 19:25 | 50.06327 | 8.60705 | 1498 ft | 150 kts | 252° |
| 2026-05-06 19:26 | 50.05980 | 8.59247 | 1264 ft | 137 kts | 252° |
| 2026-05-06 19:26 | 50.05660 | 8.57903 | 1055 ft | 128 kts | 252° |
| 2026-05-06 19:26 | 50.05359 | 8.56625 | 852 ft | 124 kts | 252° |
| 2026-05-06 19:26 | 50.05048 | 8.55332 | 713 ft | 129 kts | 253° |
| 2026-05-06 19:27 | 50.04740 | 8.54021 | 487 ft | 129 kts | 252° |
| 2026-05-06 19:27 | 50.04537 | 8.53189 | 375 ft | 128 kts | 252° |
| 2026-05-06 19:27 | 50.04267 | 8.52052 | 355 ft | 101 kts | 245° |
| 2026-05-06 19:27 | 50.04075 | 8.51252 | 352 ft | 63 kts | 250° |
| 2026-05-06 19:28 | 50.03945 | 8.50710 | 351 ft | 39 kts | 250° |
| 2026-05-06 19:28 | 50.03860 | 8.50437 | 352 ft | 26 kts | 237° |
| 2026-05-06 19:28 | 50.03775 | 8.50296 | 352 ft | 17 kts | 222° |
| 2026-05-06 19:28 | 50.03683 | 8.50185 | 351 ft | 15 kts | 202° |
| 2026-05-06 19:29 | 50.03626 | 8.50268 | 346 ft | 13 kts | 74° |
| 2026-05-06 19:29 | 50.03651 | 8.50376 | 353 ft | 7 kts | 70° |
| 2026-05-06 19:29 | 50.03661 | 8.50417 | 347 ft | 0 kts | 69° |
| 2026-05-06 19:29 | 50.03661 | 8.50418 | 347 ft | 2 kts | 71° |
| 2026-05-06 19:30 | 50.03675 | 8.50481 | 351 ft | 7 kts | 70° |
| 2026-05-06 19:30 | 50.03690 | 8.50544 | 348 ft | 6 kts | 70° |
| 2026-05-06 19:30 | 50.03703 | 8.50600 | 348 ft | 10 kts | 70° |
| 2026-05-06 19:30 | 50.03728 | 8.50704 | 348 ft | 10 kts | 70° |
| 2026-05-06 19:31 | 50.03753 | 8.50811 | 349 ft | 12 kts | 69° |
| 2026-05-06 19:31 | 50.03785 | 8.50944 | 352 ft | 14 kts | 70° |
| 2026-05-06 19:31 | 50.03868 | 8.51290 | 353 ft | 17 kts | 71° |
| 2026-05-06 19:32 | 50.03910 | 8.51469 | 353 ft | 18 kts | 70° |
| 2026-05-06 19:32 | 50.03935 | 8.51577 | 348 ft | 9 kts | 69° |
| 2026-05-06 19:32 | 50.03957 | 8.51668 | 352 ft | 9 kts | 70° |
| 2026-05-06 19:32 | 50.03979 | 8.51762 | 348 ft | 9 kts | 69° |
| 2026-05-06 19:33 | 50.04001 | 8.51853 | 353 ft | 9 kts | 69° |
| 2026-05-06 19:33 | 50.04024 | 8.51947 | 348 ft | 11 kts | 69° |
| 2026-05-06 19:33 | 50.04050 | 8.52052 | 347 ft | 11 kts | 68° |
| 2026-05-06 19:33 | 50.04084 | 8.52188 | 353 ft | 13 kts | 69° |
| 2026-05-06 19:34 | 50.04115 | 8.52318 | 353 ft | 12 kts | 69° |
| 2026-05-06 19:34 | 50.04144 | 8.52439 | 353 ft | 11 kts | 71° |
| 2026-05-06 19:34 | 50.04172 | 8.52560 | 352 ft | 12 kts | 69° |
| 2026-05-06 19:34 | 50.04199 | 8.52678 | 350 ft | 11 kts | 71° |
| 2026-05-06 19:35 | 50.04228 | 8.52796 | 349 ft | 17 kts | 68° |
| 2026-05-06 19:35 | 50.04274 | 8.52980 | 349 ft | 17 kts | 69° |
| 2026-05-06 19:35 | 50.04313 | 8.53144 | 352 ft | 16 kts | 70° |
| 2026-05-06 19:35 | 50.04350 | 8.53295 | 347 ft | 14 kts | 69° |
| 2026-05-06 19:36 | 50.04389 | 8.53459 | 349 ft | 18 kts | 72° |
| 2026-05-06 19:36 | 50.04408 | 8.53677 | 348 ft | 22 kts | 84° |
| 2026-05-06 19:36 | 50.04424 | 8.53924 | 346 ft | 24 kts | 84° |
| 2026-05-06 19:36 | 50.04438 | 8.54139 | 346 ft | 19 kts | 84° |
| 2026-05-06 19:37 | 50.04443 | 8.54228 | 348 ft | 12 kts | 85° |
| 2026-05-06 19:37 | 50.04450 | 8.54355 | 348 ft | 11 kts | 85° |
| 2026-05-06 19:37 | 50.04450 | 8.54474 | 350 ft | 11 kts | 99° |
| 2026-05-06 19:37 | 50.04432 | 8.54579 | 351 ft | 10 kts | 112° |
| 2026-05-06 19:38 | 50.04399 | 8.54663 | 351 ft | 9 kts | 129° |
| 2026-05-06 19:38 | 50.04355 | 8.54729 | 354 ft | 8 kts | 140° |
| 2026-05-06 19:38 | 50.04306 | 8.54773 | 348 ft | 10 kts | 155° |
| 2026-05-06 19:38 | 50.04195 | 8.54836 | 348 ft | 19 kts | 160° |
| 2026-05-06 19:39 | 50.04073 | 8.54909 | 351 ft | 18 kts | 159° |